sensor_id;sensor_type;location;lat;lon;timestamp;pressure;altitude;pressure_sealevel;temperature;humidity
73862;BME280;63459;51.456;-0.916;2023-03-01T00:01:18;102728.20;;;20.27;21.35
73862;BME280;63459;51.456;-0.916;2023-03-01T00:03:42;102727.51;;;19.81;21.35
73862;BME280;63459;51.456;-0.916;2023-03-01T00:06:06;102727.36;;;19.58;21.36
73862;BME280;63459;51.456;-0.916;2023-03-01T00:11:02;102725.06;;;20.11;21.27
73862;BME280;63459;51.456;-0.916;2023-03-01T00:13:22;102724.98;;;19.62;21.32
73862;BME280;63459;51.456;-0.916;2023-03-01T00:15:48;102723.05;;;19.63;21.31
73862;BME280;63459;51.456;-0.916;2023-03-01T00:18:13;102725.73;;;19.60;21.31
73862;BME280;63459;51.456;-0.916;2023-03-01T00:20:39;102721.77;;;19.79;21.32
73862;BME280;63459;51.456;-0.916;2023-03-01T00:23:04;102728.30;;;19.57;21.31
73862;BME280;63459;51.456;-0.916;2023-03-01T00:25:30;102726.84;;;19.61;21.25
73862;BME280;63459;51.456;-0.916;2023-03-01T00:27:55;102721.44;;;19.60;21.22
73862;BME280;63459;51.456;-0.916;2023-03-01T00:30:21;102726.56;;;19.86;21.17
73862;BME280;63459;51.456;-0.916;2023-03-01T00:32:46;102723.70;;;19.63;21.14
73862;BME280;63459;51.456;-0.916;2023-03-01T00:35:11;102726.53;;;19.84;21.10
73862;BME280;63459;51.456;-0.916;2023-03-01T00:37:37;102731.90;;;20.06;21.08
73862;BME280;63459;51.456;-0.916;2023-03-01T00:40:03;102729.43;;;19.59;21.08
73862;BME280;63459;51.456;-0.916;2023-03-01T00:42:27;102724.65;;;19.38;21.07
73862;BME280;63459;51.456;-0.916;2023-03-01T00:44:53;102725.32;;;19.60;21.08
73862;BME280;63459;51.456;-0.916;2023-03-01T00:47:18;102721.66;;;19.18;21.06
73862;BME280;63459;51.456;-0.916;2023-03-01T00:49:44;102720.70;;;20.09;21.03
73862;BME280;63459;51.456;-0.916;2023-03-01T00:52:09;102724.22;;;19.91;20.88
73862;BME280;63459;51.456;-0.916;2023-03-01T00:54:34;102723.86;;;19.65;20.90
73862;BME280;63459;51.456;-0.916;2023-03-01T00:57:00;102722.96;;;19.70;20.72
73862;BME280;63459;51.456;-0.916;2023-03-01T00:59:25;102722.99;;;19.86;20.79
73862;BME280;63459;51.456;-0.916;2023-03-01T01:01:50;102727.19;;;19.63;20.84
73862;BME280;63459;51.456;-0.916;2023-03-01T01:04:16;102728.19;;;19.57;20.95
73862;BME280;63459;51.456;-0.916;2023-03-01T01:06:43;102729.15;;;19.55;21.03
73862;BME280;63459;51.456;-0.916;2023-03-01T01:09:07;102723.07;;;19.21;21.22
73862;BME280;63459;51.456;-0.916;2023-03-01T01:11:33;102721.41;;;19.77;21.30
73862;BME280;63459;51.456;-0.916;2023-03-01T01:13:58;102721.99;;;19.72;21.38
73862;BME280;63459;51.456;-0.916;2023-03-01T01:16:25;102716.57;;;19.70;21.42
73862;BME280;63459;51.456;-0.916;2023-03-01T01:18:48;102720.34;;;19.24;21.48
73862;BME280;63459;51.456;-0.916;2023-03-01T01:21:16;102714.96;;;19.24;21.48
73862;BME280;63459;51.456;-0.916;2023-03-01T01:23:40;102715.88;;;19.27;21.47
73862;BME280;63459;51.456;-0.916;2023-03-01T01:26:06;102715.88;;;19.96;21.44
73862;BME280;63459;51.456;-0.916;2023-03-01T01:28:30;102718.73;;;19.57;21.43
73862;BME280;63459;51.456;-0.916;2023-03-01T01:30:55;102717.97;;;19.33;21.42
73862;BME280;63459;51.456;-0.916;2023-03-01T01:33:20;102715.90;;;19.52;21.47
73862;BME280;63459;51.456;-0.916;2023-03-01T01:35:46;102719.25;;;19.75;21.49
73862;BME280;63459;51.456;-0.916;2023-03-01T01:38:11;102715.29;;;19.74;21.51
73862;BME280;63459;51.456;-0.916;2023-03-01T01:40:43;102713.64;;;19.52;21.51
73862;BME280;63459;51.456;-0.916;2023-03-01T01:43:02;102711.95;;;19.53;21.53
73862;BME280;63459;51.456;-0.916;2023-03-01T01:45:31;102717.07;;;19.73;21.52
73862;BME280;63459;51.456;-0.916;2023-03-01T01:47:54;102712.26;;;19.53;21.42
73862;BME280;63459;51.456;-0.916;2023-03-01T01:50:18;102708.85;;;19.29;21.42
73862;BME280;63459;51.456;-0.916;2023-03-01T01:52:43;102709.90;;;19.66;21.35
73862;BME280;63459;51.456;-0.916;2023-03-01T01:55:11;102708.54;;;19.63;21.31
73862;BME280;63459;51.456;-0.916;2023-03-01T01:57:36;102707.71;;;19.85;21.30
73862;BME280;63459;51.456;-0.916;2023-03-01T02:00:03;102703.65;;;18.96;21.20
73862;BME280;63459;51.456;-0.916;2023-03-01T02:02:24;102703.41;;;19.60;21.14
73862;BME280;63459;51.456;-0.916;2023-03-01T02:04:52;102697.84;;;19.35;21.17
73862;BME280;63459;51.456;-0.916;2023-03-01T02:09:41;102694.69;;;19.31;21.20
73862;BME280;63459;51.456;-0.916;2023-03-01T02:12:05;102680.63;;;19.25;21.23
73862;BME280;63459;51.456;-0.916;2023-03-01T02:14:30;102680.16;;;19.39;21.36
73862;BME280;63459;51.456;-0.916;2023-03-01T02:16:55;102679.60;;;19.50;21.51
73862;BME280;63459;51.456;-0.916;2023-03-01T02:19:31;102672.96;;;19.41;21.64
73862;BME280;63459;51.456;-0.916;2023-03-01T02:21:52;102671.95;;;19.14;21.72
73862;BME280;63459;51.456;-0.916;2023-03-01T02:24:21;102671.08;;;18.85;21.77
73862;BME280;63459;51.456;-0.916;2023-03-01T02:26:42;102676.31;;;18.79;21.87
73862;BME280;63459;51.456;-0.916;2023-03-01T02:29:02;102671.94;;;18.83;21.88
73862;BME280;63459;51.456;-0.916;2023-03-01T02:31:27;102669.56;;;19.22;21.99
73862;BME280;63459;51.456;-0.916;2023-03-01T02:33:53;102664.25;;;18.54;22.11
73862;BME280;63459;51.456;-0.916;2023-03-01T02:36:20;102671.56;;;18.51;22.21
73862;BME280;63459;51.456;-0.916;2023-03-01T02:38:44;102665.55;;;19.12;22.30
73862;BME280;63459;51.456;-0.916;2023-03-01T02:41:10;102665.99;;;19.33;22.39
73862;BME280;63459;51.456;-0.916;2023-03-01T02:43:34;102664.86;;;18.43;22.53
73862;BME280;63459;51.456;-0.916;2023-03-01T02:46:05;102662.89;;;18.83;22.57
73862;BME280;63459;51.456;-0.916;2023-03-01T02:51:03;102652.10;;;18.86;22.79
73862;BME280;63459;51.456;-0.916;2023-03-01T02:53:17;102649.01;;;19.01;22.87
73862;BME280;63459;51.456;-0.916;2023-03-01T02:55:41;102641.40;;;18.55;22.89
73862;BME280;63459;51.456;-0.916;2023-03-01T02:58:07;102637.70;;;18.87;23.03
73862;BME280;63459;51.456;-0.916;2023-03-01T03:00:35;102638.34;;;18.65;23.08
73862;BME280;63459;51.456;-0.916;2023-03-01T03:02:57;102638.81;;;18.82;23.12
73862;BME280;63459;51.456;-0.916;2023-03-01T03:05:24;102633.24;;;18.52;23.17
73862;BME280;63459;51.456;-0.916;2023-03-01T03:07:48;102631.27;;;18.50;23.21
73862;BME280;63459;51.456;-0.916;2023-03-01T03:10:15;102630.10;;;18.72;23.21
73862;BME280;63459;51.456;-0.916;2023-03-01T03:12:39;102629.94;;;18.28;23.24
73862;BME280;63459;51.456;-0.916;2023-03-01T03:15:05;102628.45;;;18.87;23.33
73862;BME280;63459;51.456;-0.916;2023-03-01T03:17:29;102623.61;;;18.88;23.35
73862;BME280;63459;51.456;-0.916;2023-03-01T03:19:54;102626.26;;;18.22;23.41
73862;BME280;63459;51.456;-0.916;2023-03-01T03:22:20;102626.15;;;18.49;23.39
73862;BME280;63459;51.456;-0.916;2023-03-01T03:24:45;102623.42;;;18.56;23.35
73862;BME280;63459;51.456;-0.916;2023-03-01T03:36:53;102616.61;;;18.75;23.36
73862;BME280;63459;51.456;-0.916;2023-03-01T03:41:42;102614.93;;;18.34;23.26
73862;BME280;63459;51.456;-0.916;2023-03-01T03:46:33;102610.15;;;18.56;23.23
73862;BME280;63459;51.456;-0.916;2023-03-01T03:48:58;102608.64;;;18.10;23.27
73862;BME280;63459;51.456;-0.916;2023-03-01T03:51:24;102606.39;;;18.52;23.29
73862;BME280;63459;51.456;-0.916;2023-03-01T03:53:49;102602.86;;;18.30;23.30
73862;BME280;63459;51.456;-0.916;2023-03-01T03:56:15;102603.39;;;18.53;23.25
73862;BME280;63459;51.456;-0.916;2023-03-01T03:58:40;102600.77;;;18.95;23.25
73862;BME280;63459;51.456;-0.916;2023-03-01T04:01:05;102603.29;;;18.49;23.25
73862;BME280;63459;51.456;-0.916;2023-03-01T04:03:32;102602.26;;;18.51;23.23
73862;BME280;63459;51.456;-0.916;2023-03-01T04:05:59;102599.69;;;18.78;23.20
73862;BME280;63459;51.456;-0.916;2023-03-01T04:08:23;102600.84;;;18.45;23.18
73862;BME280;63459;51.456;-0.916;2023-03-01T04:13:13;102592.90;;;18.68;23.02
73862;BME280;63459;51.456;-0.916;2023-03-01T04:15:37;102594.02;;;18.95;22.99
73862;BME280;63459;51.456;-0.916;2023-03-01T04:18:03;102593.84;;;18.78;22.94
73862;BME280;63459;51.456;-0.916;2023-03-01T04:20:30;102588.00;;;19.03;22.88
73862;BME280;63459;51.456;-0.916;2023-03-01T04:22:58;102584.21;;;18.81;22.85
73862;BME280;63459;51.456;-0.916;2023-03-01T04:27:44;102579.06;;;18.98;22.86
73862;BME280;63459;51.456;-0.916;2023-03-01T04:32:34;102585.52;;;19.26;22.84
73862;BME280;63459;51.456;-0.916;2023-03-01T04:37:25;102585.85;;;18.98;22.70
73862;BME280;63459;51.456;-0.916;2023-03-01T04:39:51;102585.61;;;18.71;22.76
73862;BME280;63459;51.456;-0.916;2023-03-01T04:42:16;102580.82;;;18.91;22.75
73862;BME280;63459;51.456;-0.916;2023-03-01T04:44:41;102581.81;;;18.42;22.80
73862;BME280;63459;51.456;-0.916;2023-03-01T04:47:07;102580.19;;;18.66;22.79
73862;BME280;63459;51.456;-0.916;2023-03-01T04:49:32;102579.73;;;19.32;22.79
73862;BME280;63459;51.456;-0.916;2023-03-01T04:54:22;102569.64;;;18.95;22.68
73862;BME280;63459;51.456;-0.916;2023-03-01T04:56:48;102570.54;;;19.11;22.71
73862;BME280;63459;51.456;-0.916;2023-03-01T04:59:13;102567.87;;;19.09;22.72
73862;BME280;63459;51.456;-0.916;2023-03-01T05:04:04;102564.09;;;18.93;22.67
73862;BME280;63459;51.456;-0.916;2023-03-01T05:06:30;102562.30;;;19.12;22.65
73862;BME280;63459;51.456;-0.916;2023-03-01T05:08:55;102562.02;;;19.29;22.66
73862;BME280;63459;51.456;-0.916;2023-03-01T05:11:20;102565.29;;;18.81;22.71
73862;BME280;63459;51.456;-0.916;2023-03-01T05:13:46;102564.63;;;18.78;22.69
73862;BME280;63459;51.456;-0.916;2023-03-01T05:18:38;102559.53;;;18.85;22.62
73862;BME280;63459;51.456;-0.916;2023-03-01T05:21:04;102552.43;;;19.10;22.57
73862;BME280;63459;51.456;-0.916;2023-03-01T05:23:27;102554.00;;;19.15;22.53
73862;BME280;63459;51.456;-0.916;2023-03-01T05:25:53;102552.45;;;18.91;22.58
73862;BME280;63459;51.456;-0.916;2023-03-01T05:28:18;102551.88;;;19.17;22.55
73862;BME280;63459;51.456;-0.916;2023-03-01T05:30:43;102547.99;;;18.98;22.52
73862;BME280;63459;51.456;-0.916;2023-03-01T05:35:34;102543.18;;;19.04;22.47
73862;BME280;63459;51.456;-0.916;2023-03-01T05:38:01;102543.03;;;18.87;22.45
73862;BME280;63459;51.456;-0.916;2023-03-01T05:40:25;102537.84;;;19.13;22.43
73862;BME280;63459;51.456;-0.916;2023-03-01T05:45:17;102539.34;;;18.99;22.37
73862;BME280;63459;51.456;-0.916;2023-03-01T05:47:42;102536.25;;;19.46;22.33
73862;BME280;63459;51.456;-0.916;2023-03-01T05:50:07;102531.19;;;19.03;22.29
73862;BME280;63459;51.456;-0.916;2023-03-01T05:52:31;102531.36;;;19.20;22.30
73862;BME280;63459;51.456;-0.916;2023-03-01T05:54:57;102527.52;;;19.57;22.34
73862;BME280;63459;51.456;-0.916;2023-03-01T05:59:48;102524.93;;;18.74;22.22
73862;BME280;63459;51.456;-0.916;2023-03-01T06:02:13;102521.14;;;19.10;22.25
73862;BME280;63459;51.456;-0.916;2023-03-01T06:04:38;102519.59;;;19.30;22.27
73862;BME280;63459;51.456;-0.916;2023-03-01T06:07:03;102521.90;;;19.02;22.28
73862;BME280;63459;51.456;-0.916;2023-03-01T06:09:29;102526.30;;;19.23;22.27
73862;BME280;63459;51.456;-0.916;2023-03-01T06:11:54;102531.36;;;19.00;22.28
73862;BME280;63459;51.456;-0.916;2023-03-01T06:14:20;102535.06;;;19.00;22.29
73862;BME280;63459;51.456;-0.916;2023-03-01T06:16:45;102542.14;;;18.54;22.30
73862;BME280;63459;51.456;-0.916;2023-03-01T06:19:10;102537.68;;;19.19;22.26
73862;BME280;63459;51.456;-0.916;2023-03-01T06:21:36;102538.12;;;18.72;22.29
73862;BME280;63459;51.456;-0.916;2023-03-01T06:26:27;102539.91;;;19.07;21.88
73862;BME280;63459;51.456;-0.916;2023-03-01T06:28:52;102537.28;;;19.35;21.94
73862;BME280;63459;51.456;-0.916;2023-03-01T06:31:17;102535.51;;;19.02;22.04
73862;BME280;63459;51.456;-0.916;2023-03-01T06:33:43;102532.26;;;18.96;22.08
73862;BME280;63459;51.456;-0.916;2023-03-01T06:36:08;102533.20;;;19.40;22.02
73862;BME280;63459;51.456;-0.916;2023-03-01T06:38:33;102534.72;;;19.14;22.04
73862;BME280;63459;51.456;-0.916;2023-03-01T06:40:58;102537.95;;;19.19;21.97
73862;BME280;63459;51.456;-0.916;2023-03-01T06:43:24;102540.76;;;19.39;21.95
73862;BME280;63459;51.456;-0.916;2023-03-01T06:45:49;102536.30;;;18.93;21.88
73862;BME280;63459;51.456;-0.916;2023-03-01T06:48:15;102538.63;;;19.09;21.90
73862;BME280;63459;51.456;-0.916;2023-03-01T06:50:40;102541.34;;;18.80;21.97
73862;BME280;63459;51.456;-0.916;2023-03-01T06:53:05;102549.54;;;19.27;21.89
73862;BME280;63459;51.456;-0.916;2023-03-01T06:55:36;102555.34;;;18.78;21.89
73862;BME280;63459;51.456;-0.916;2023-03-01T06:57:56;102562.63;;;18.94;21.94
73862;BME280;63459;51.456;-0.916;2023-03-01T07:00:22;102565.21;;;18.93;22.00
73862;BME280;63459;51.456;-0.916;2023-03-01T07:02:47;102564.90;;;18.99;21.96
73862;BME280;63459;51.456;-0.916;2023-03-01T07:05:12;102566.53;;;18.66;21.94
73862;BME280;63459;51.456;-0.916;2023-03-01T07:07:37;102563.90;;;18.68;21.87
73862;BME280;63459;51.456;-0.916;2023-03-01T07:10:03;102568.26;;;18.92;21.87
73862;BME280;63459;51.456;-0.916;2023-03-01T07:12:28;102565.30;;;19.15;21.83
73862;BME280;63459;51.456;-0.916;2023-03-01T07:17:19;102565.15;;;18.73;21.77
73862;BME280;63459;51.456;-0.916;2023-03-01T07:19:44;102566.64;;;19.11;21.80
73862;BME280;63459;51.456;-0.916;2023-03-01T07:22:10;102571.11;;;19.37;21.74
73862;BME280;63459;51.456;-0.916;2023-03-01T07:24:35;102567.71;;;19.35;21.76
73862;BME280;63459;51.456;-0.916;2023-03-01T07:27:00;102563.23;;;19.00;21.66
73862;BME280;63459;51.456;-0.916;2023-03-01T07:29:26;102563.73;;;18.81;21.67
73862;BME280;63459;51.456;-0.916;2023-03-01T07:31:51;102572.65;;;19.08;21.66
73862;BME280;63459;51.456;-0.916;2023-03-01T07:34:21;102572.71;;;19.27;21.66
73862;BME280;63459;51.456;-0.916;2023-03-01T07:36:41;102578.34;;;19.24;21.73
73862;BME280;63459;51.456;-0.916;2023-03-01T07:39:07;102580.42;;;18.80;21.75
73862;BME280;63459;51.456;-0.916;2023-03-01T07:41:32;102576.56;;;19.03;21.73
73862;BME280;63459;51.456;-0.916;2023-03-01T07:43:58;102581.35;;;19.06;21.68
73862;BME280;63459;51.456;-0.916;2023-03-01T07:46:23;102578.43;;;19.06;21.63
73862;BME280;63459;51.456;-0.916;2023-03-01T07:48:49;102578.91;;;19.24;21.65
73862;BME280;63459;51.456;-0.916;2023-03-01T07:51:14;102577.08;;;18.78;21.68
73862;BME280;63459;51.456;-0.916;2023-03-01T07:53:40;102576.44;;;19.04;21.73
73862;BME280;63459;51.456;-0.916;2023-03-01T07:56:08;102572.78;;;19.08;21.74
73862;BME280;63459;51.456;-0.916;2023-03-01T07:58:30;102571.41;;;19.15;21.68
73862;BME280;63459;51.456;-0.916;2023-03-01T08:00:55;102569.72;;;19.40;21.69
73862;BME280;63459;51.456;-0.916;2023-03-01T08:03:22;102571.03;;;19.42;21.63
73862;BME280;63459;51.456;-0.916;2023-03-01T08:05:46;102563.06;;;19.20;21.63
73862;BME280;63459;51.456;-0.916;2023-03-01T08:08:16;102564.09;;;19.64;21.65
73862;BME280;63459;51.456;-0.916;2023-03-01T08:10:36;102563.34;;;19.07;21.57
73862;BME280;63459;51.456;-0.916;2023-03-01T08:13:02;102561.97;;;19.08;21.56
73862;BME280;63459;51.456;-0.916;2023-03-01T08:15:27;102559.55;;;18.68;21.55
73862;BME280;63459;51.456;-0.916;2023-03-01T08:20:18;102557.92;;;19.65;21.50
73862;BME280;63459;51.456;-0.916;2023-03-01T08:22:43;102559.55;;;19.73;21.44
73862;BME280;63459;51.456;-0.916;2023-03-01T08:25:13;102560.86;;;19.45;21.50
73862;BME280;63459;51.456;-0.916;2023-03-01T08:27:40;102560.00;;;19.87;21.52
73862;BME280;63459;51.456;-0.916;2023-03-01T08:30:12;102561.13;;;19.49;21.47
73862;BME280;63459;51.456;-0.916;2023-03-01T08:34:55;102559.68;;;19.63;21.49
73862;BME280;63459;51.456;-0.916;2023-03-01T08:37:15;102559.86;;;19.47;21.47
73862;BME280;63459;51.456;-0.916;2023-03-01T08:39:40;102564.48;;;19.88;21.55
73862;BME280;63459;51.456;-0.916;2023-03-01T08:44:31;102569.25;;;19.37;21.43
73862;BME280;63459;51.456;-0.916;2023-03-01T08:46:56;102564.13;;;20.05;21.44
73862;BME280;63459;51.456;-0.916;2023-03-01T08:49:21;102564.03;;;20.15;21.40
73862;BME280;63459;51.456;-0.916;2023-03-01T08:51:47;102554.97;;;20.17;21.39
73862;BME280;63459;51.456;-0.916;2023-03-01T08:54:13;102555.31;;;20.04;21.36
73862;BME280;63459;51.456;-0.916;2023-03-01T08:56:42;102550.87;;;20.13;21.31
73862;BME280;63459;51.456;-0.916;2023-03-01T08:59:03;102549.11;;;19.55;21.28
73862;BME280;63459;51.456;-0.916;2023-03-01T09:01:27;102553.19;;;20.31;21.21
73862;BME280;63459;51.456;-0.916;2023-03-01T09:03:53;102547.31;;;20.35;21.06
73862;BME280;63459;51.456;-0.916;2023-03-01T09:06:23;102545.17;;;20.16;21.10
73862;BME280;63459;51.456;-0.916;2023-03-01T09:11:11;102540.81;;;20.17;20.97
73862;BME280;63459;51.456;-0.916;2023-03-01T09:16:02;102535.05;;;20.14;21.17
73862;BME280;63459;51.456;-0.916;2023-03-01T09:20:50;102528.34;;;20.56;21.20
73862;BME280;63459;51.456;-0.916;2023-03-01T09:25:41;102527.70;;;20.37;21.29
73862;BME280;63459;51.456;-0.916;2023-03-01T09:28:06;102529.15;;;19.81;21.37
73862;BME280;63459;51.456;-0.916;2023-03-01T09:30:32;102530.10;;;20.21;21.30
73862;BME280;63459;51.456;-0.916;2023-03-01T09:32:57;102527.53;;;20.24;21.22
73862;BME280;63459;51.456;-0.916;2023-03-01T09:35:22;102528.27;;;19.88;21.27
73862;BME280;63459;51.456;-0.916;2023-03-01T09:37:47;102530.23;;;19.86;21.43
73862;BME280;63459;51.456;-0.916;2023-03-01T09:40:15;102525.72;;;20.13;21.51
73862;BME280;63459;51.456;-0.916;2023-03-01T09:42:47;102523.26;;;19.74;21.49
73862;BME280;63459;51.456;-0.916;2023-03-01T09:45:04;102515.19;;;20.16;21.50
73862;BME280;63459;51.456;-0.916;2023-03-01T09:47:30;102511.62;;;20.22;21.56
73862;BME280;63459;51.456;-0.916;2023-03-01T09:50:00;102509.51;;;20.27;21.61
73862;BME280;63459;51.456;-0.916;2023-03-01T09:52:25;102509.98;;;20.33;21.59
73862;BME280;63459;51.456;-0.916;2023-03-01T09:57:18;102500.64;;;20.33;21.66
73862;BME280;63459;51.456;-0.916;2023-03-01T09:59:47;102498.67;;;20.58;21.54
73862;BME280;63459;51.456;-0.916;2023-03-01T10:02:11;102502.34;;;20.52;21.62
73862;BME280;63459;51.456;-0.916;2023-03-01T10:04:32;102505.86;;;20.01;21.60
73862;BME280;63459;51.456;-0.916;2023-03-01T10:07:00;102494.35;;;20.42;21.46
73862;BME280;63459;51.456;-0.916;2023-03-01T10:09:17;102498.33;;;20.17;21.58
73862;BME280;63459;51.456;-0.916;2023-03-01T10:11:45;102491.03;;;19.97;21.57
73862;BME280;63459;51.456;-0.916;2023-03-01T10:14:22;102494.42;;;20.18;21.57
73862;BME280;63459;51.456;-0.916;2023-03-01T10:16:40;102491.15;;;20.22;21.59
73862;BME280;63459;51.456;-0.916;2023-03-01T10:19:02;102487.78;;;20.08;21.60
73862;BME280;63459;51.456;-0.916;2023-03-01T10:21:22;102485.01;;;20.16;21.57
73862;BME280;63459;51.456;-0.916;2023-03-01T10:24:05;102485.81;;;20.46;21.56
73862;BME280;63459;51.456;-0.916;2023-03-01T10:26:27;102481.13;;;20.39;21.44
73862;BME280;63459;51.456;-0.916;2023-03-01T10:28:47;102477.10;;;20.33;21.40
73862;BME280;63459;51.456;-0.916;2023-03-01T10:31:04;102479.11;;;20.56;21.31
73862;BME280;63459;51.456;-0.916;2023-03-01T10:33:37;102474.80;;;20.15;21.20
73862;BME280;63459;51.456;-0.916;2023-03-01T10:35:54;102473.76;;;20.28;21.12
73862;BME280;63459;51.456;-0.916;2023-03-01T10:38:20;102463.97;;;20.61;20.85
73862;BME280;63459;51.456;-0.916;2023-03-01T10:40:53;102458.81;;;20.81;20.56
73862;BME280;63459;51.456;-0.916;2023-03-01T10:43:12;102455.54;;;20.36;20.32
73862;BME280;63459;51.456;-0.916;2023-03-01T10:45:37;102459.22;;;20.87;20.29
73862;BME280;63459;51.456;-0.916;2023-03-01T10:48:11;102453.86;;;20.94;20.30
73862;BME280;63459;51.456;-0.916;2023-03-01T10:50:26;102455.15;;;21.07;20.13
73862;BME280;63459;51.456;-0.916;2023-03-01T10:52:57;102455.78;;;21.11;20.08
73862;BME280;63459;51.456;-0.916;2023-03-01T10:55:24;102455.47;;;20.96;20.07
73862;BME280;63459;51.456;-0.916;2023-03-01T10:57:42;102451.81;;;21.47;19.95
73862;BME280;63459;51.456;-0.916;2023-03-01T11:02:32;102447.79;;;20.93;19.97
73862;BME280;63459;51.456;-0.916;2023-03-01T11:04:59;102445.32;;;21.23;19.89
73862;BME280;63459;51.456;-0.916;2023-03-01T11:07:23;102443.10;;;20.77;19.97
73862;BME280;63459;51.456;-0.916;2023-03-01T11:09:48;102443.59;;;20.96;20.05
73862;BME280;63459;51.456;-0.916;2023-03-01T11:12:15;102433.86;;;20.44;20.15
73862;BME280;63459;51.456;-0.916;2023-03-01T11:14:46;102432.83;;;20.45;20.28
73862;BME280;63459;51.456;-0.916;2023-03-01T11:17:11;102431.46;;;21.07;20.26
73862;BME280;63459;51.456;-0.916;2023-03-01T11:19:31;102433.26;;;20.83;20.31
73862;BME280;63459;51.456;-0.916;2023-03-01T11:22:00;102434.97;;;20.13;20.32
73862;BME280;63459;51.456;-0.916;2023-03-01T11:24:27;102436.29;;;20.86;20.44
73862;BME280;63459;51.456;-0.916;2023-03-01T11:26:50;102422.70;;;20.91;20.45
73862;BME280;63459;51.456;-0.916;2023-03-01T11:29:17;102427.92;;;20.88;20.53
73862;BME280;63459;51.456;-0.916;2023-03-01T11:31:36;102424.29;;;20.69;20.40
73862;BME280;63459;51.456;-0.916;2023-03-01T11:34:10;102431.56;;;20.72;20.27
73862;BME280;63459;51.456;-0.916;2023-03-01T11:36:32;102423.27;;;20.57;20.35
73862;BME280;63459;51.456;-0.916;2023-03-01T11:38:53;102416.46;;;21.11;20.08
73862;BME280;63459;51.456;-0.916;2023-03-01T11:41:20;102416.19;;;21.21;20.01
73862;BME280;63459;51.456;-0.916;2023-03-01T11:43:50;102418.14;;;20.88;19.89
73862;BME280;63459;51.456;-0.916;2023-03-01T11:48:43;102408.05;;;20.98;19.81
73862;BME280;63459;51.456;-0.916;2023-03-01T11:51:00;102405.75;;;21.01;19.75
73862;BME280;63459;51.456;-0.916;2023-03-01T11:53:40;102403.91;;;20.65;19.77
73862;BME280;63459;51.456;-0.916;2023-03-01T11:55:59;102405.47;;;21.15;19.68
73862;BME280;63459;51.456;-0.916;2023-03-01T12:00:54;102399.50;;;20.85;19.68
73862;BME280;63459;51.456;-0.916;2023-03-01T12:03:17;102390.26;;;21.32;19.70
73862;BME280;63459;51.456;-0.916;2023-03-01T12:08:01;102386.38;;;21.41;19.91
73862;BME280;63459;51.456;-0.916;2023-03-01T12:10:25;102383.24;;;21.44;19.97
73862;BME280;63459;51.456;-0.916;2023-03-01T12:12:58;102374.90;;;21.13;20.12
73862;BME280;63459;51.456;-0.916;2023-03-01T12:15:21;102370.00;;;21.03;20.09
73862;BME280;63459;51.456;-0.916;2023-03-01T12:17:51;102363.58;;;21.21;20.26
73862;BME280;63459;51.456;-0.916;2023-03-01T12:20:14;102358.17;;;21.16;20.57
73862;BME280;63459;51.456;-0.916;2023-03-01T12:22:31;102362.92;;;20.70;20.65
73862;BME280;63459;51.456;-0.916;2023-03-01T12:25:05;102352.55;;;21.22;20.77
73862;BME280;63459;51.456;-0.916;2023-03-01T12:27:30;102342.53;;;21.48;20.94
73862;BME280;63459;51.456;-0.916;2023-03-01T12:29:49;102348.71;;;21.13;20.93
73862;BME280;63459;51.456;-0.916;2023-03-01T12:32:16;102338.18;;;21.24;21.06
73862;BME280;63459;51.456;-0.916;2023-03-01T12:37:11;102323.28;;;21.22;21.13
73862;BME280;63459;51.456;-0.916;2023-03-01T12:41:57;102311.06;;;21.75;20.88
73862;BME280;63459;51.456;-0.916;2023-03-01T12:44:30;102307.27;;;21.43;20.76
73862;BME280;63459;51.456;-0.916;2023-03-01T12:46:51;102296.23;;;21.96;20.52
73862;BME280;63459;51.456;-0.916;2023-03-01T12:49:09;102301.74;;;21.66;20.42
73862;BME280;63459;51.456;-0.916;2023-03-01T12:51:33;102287.79;;;21.96;20.19
73862;BME280;63459;51.456;-0.916;2023-03-01T12:53:59;102279.23;;;21.92;20.12
73862;BME280;63459;51.456;-0.916;2023-03-01T12:56:24;102279.23;;;22.32;20.02
73862;BME280;63459;51.456;-0.916;2023-03-01T12:58:57;102271.18;;;21.81;19.86
73862;BME280;63459;51.456;-0.916;2023-03-01T13:01:21;102271.30;;;22.16;19.57
73862;BME280;63459;51.456;-0.916;2023-03-01T13:06:08;102267.96;;;22.99;19.17
73862;BME280;63459;51.456;-0.916;2023-03-01T13:08:32;102260.58;;;22.75;19.03
73862;BME280;63459;51.456;-0.916;2023-03-01T13:10:57;102254.78;;;22.37;18.87
73862;BME280;63459;51.456;-0.916;2023-03-01T13:13:21;102255.70;;;22.62;18.63
73862;BME280;63459;51.456;-0.916;2023-03-01T13:15:46;102244.71;;;22.53;18.45
73862;BME280;63459;51.456;-0.916;2023-03-01T13:20:45;102247.52;;;22.68;18.50
73862;BME280;63459;51.456;-0.916;2023-03-01T13:23:06;102247.94;;;21.89;18.48
73862;BME280;63459;51.456;-0.916;2023-03-01T13:25:28;102248.09;;;22.40;18.52
73862;BME280;63459;51.456;-0.916;2023-03-01T13:32:42;102238.77;;;22.02;18.54
73862;BME280;63459;51.456;-0.916;2023-03-01T13:37:35;102231.75;;;22.40;18.56
73862;BME280;63459;51.456;-0.916;2023-03-01T13:40:01;102234.78;;;21.85;18.65
73862;BME280;63459;51.456;-0.916;2023-03-01T13:42:33;102232.41;;;22.07;18.66
73862;BME280;63459;51.456;-0.916;2023-03-01T13:44:49;102221.33;;;22.17;18.69
73862;BME280;63459;51.456;-0.916;2023-03-01T13:47:16;102218.49;;;21.89;18.60
73862;BME280;63459;51.456;-0.916;2023-03-01T13:49:43;102227.63;;;22.14;18.49
73862;BME280;63459;51.456;-0.916;2023-03-01T13:52:05;102224.01;;;22.67;18.43
73862;BME280;63459;51.456;-0.916;2023-03-01T13:54:32;102220.67;;;22.08;18.33
73862;BME280;63459;51.456;-0.916;2023-03-01T13:56:56;102215.48;;;22.14;18.18
73862;BME280;63459;51.456;-0.916;2023-03-01T13:59:22;102217.73;;;22.11;18.14
73862;BME280;63459;51.456;-0.916;2023-03-01T14:01:52;102221.03;;;22.33;18.09
73862;BME280;63459;51.456;-0.916;2023-03-01T14:04:20;102208.99;;;22.22;18.18
73862;BME280;63459;51.456;-0.916;2023-03-01T14:06:37;102207.24;;;21.93;18.18